KCIC Airport (Chico Muni) Information

FAA: CIC - ICAO: KCIC

KCIC Airport Location

State California
County Butte
City Chico
KCIC Airport is 4 miles north of Chico, CA.
Latitude 39-47-43.4000N
Longitude 121-51-30.3000W
Elevation 240ft

KCIC Airport METARs

METAR KCIC 161749Z 18004KT 10SM SKC 22/09 A2984 RMK FUHZ ALQDS
Altimeter 29.84"
Temperature 22.0°C (71.6°F)
Wind 180° at 4KT
Clouds Skies are clear.
Visibility 10.0mi
Time observed: 2021-09-16T17:49:00Z

KCIC Airport Details

Status Operational
Activation April 1987
Ownership Public
Usage Public
Chart SAN FRANCISCO
ATC on-site Yes
Beacon schedule sunset-sunrise
Beacon color clear green

KCIC Airport Contacts

Owner CITY OF CHICO
Owner address PO BOX 3420, CHICO, CA 95927
Owner phone 530-896-7200
Manager KEVIN CORREIRA
Manager address 198 ANDY'S WAY, QUINCY, CA 95971-7007
Manager phone 530-283-6299

KCIC Airport (Chico Muni) Radio Frequencies

KCIC (Airport) Radio Frequencies

UNICOM 122.95
Common traffic advisory frequency (CTAF) 121